Map

Track Data

SID SEASON NUMBER BASIN SUBBASIN NAME ISO_TIME NATURE LAT LON WMO_WIND WMO_PRES WMO_AGENCY TRACK_TYPE DIST2LAND LANDFALL IFLAG USA_AGENCY USA_ATCF_ID USA_LAT USA_LON USA_RECORD USA_STATUS USA_WIND USA_PRES USA_SSHS USA_R34_NE USA_R34_SE USA_R34_SW USA_R34_NW USA_R50_NE USA_R50_SE USA_R50_SW USA_R50_NW USA_R64_NE USA_R64_SE USA_R64_SW USA_R64_NW USA_POCI USA_ROCI USA_RMW USA_EYE TOKYO_LAT TOKYO_LON TOKYO_GRADE TOKYO_WIND TOKYO_PRES TOKYO_R50_DIR TOKYO_R50_LONG TOKYO_R50_SHORT TOKYO_R30_DIR TOKYO_R30_LONG TOKYO_R30_SHORT TOKYO_LAND CMA_LAT CMA_LON CMA_CAT CMA_WIND CMA_PRES HKO_LAT HKO_LON HKO_CAT HKO_WIND HKO_PRES NEWDELHI_LAT NEWDELHI_LON NEWDELHI_GRADE NEWDELHI_WIND NEWDELHI_PRES NEWDELHI_CI NEWDELHI_DP NEWDELHI_POCI REUNION_LAT REUNION_LON REUNION_TYPE REUNION_WIND REUNION_PRES REUNION_TNUM REUNION_CI REUNION_RMW REUNION_R34_NE REUNION_R34_SE REUNION_R34_SW REUNION_R34_NW REUNION_R50_NE REUNION_R50_SE REUNION_R50_SW REUNION_R50_NW REUNION_R64_NE REUNION_R64_SE REUNION_R64_SW REUNION_R64_NW BOM_LAT BOM_LON BOM_TYPE BOM_WIND BOM_PRES BOM_TNUM BOM_CI BOM_RMW BOM_R34_NE BOM_R34_SE BOM_R34_SW BOM_R34_NW BOM_R50_NE BOM_R50_SE BOM_R50_SW BOM_R50_NW BOM_R64_NE BOM_R64_SE BOM_R64_SW BOM_R64_NW BOM_ROCI BOM_POCI BOM_EYE BOM_POS_METHOD BOM_PRES_METHOD NADI_LAT NADI_LON NADI_CAT NADI_WIND NADI_PRES WELLINGTON_LAT WELLINGTON_LON WELLINGTON_WIND WELLINGTON_PRES DS824_LAT DS824_LON DS824_STAGE DS824_WIND DS824_PRES TD9636_LAT TD9636_LON TD9636_STAGE TD9636_WIND TD9636_PRES TD9635_LAT TD9635_LON TD9635_WIND TD9635_PRES TD9635_ROCI NEUMANN_LAT NEUMANN_LON NEUMANN_CLASS NEUMANN_WIND NEUMANN_PRES MLC_LAT MLC_LON MLC_CLASS MLC_WIND MLC_PRES USA_GUST BOM_GUST BOM_GUST_PER REUNION_GUST REUNION_GUST_PER USA_SEAHGT USA_SEARAD_NE USA_SEARAD_SE USA_SEARAD_SW USA_SEARAD_NW STORM_SPEED STORM_DIR
1867121S13069 1867 7 SI MM NOT_NAMED 1867-04-30 18:00:00 NR -13.1000 69.1000 main 1444 1414 __________O___ -1 -13.1000 69.1000 7 5 219
1867121S13069 1867 7 SI MM NOT_NAMED 1867-04-30 21:00:00 NR -13.3032 68.9268 main 1414 1392 __________P___ -1 -13.3032 68.9268 7 5 220
1867121S13069 1867 7 SI MM NOT_NAMED 1867-05-01 00:00:00 NR -13.5051 68.7527 main 1392 1362 __________P___ -1 -13.5051 68.7527 7 5 220
1867121S13069 1867 7 SI MM NOT_NAMED 1867-05-01 03:00:00 NR -13.7044 68.5773 main 1362 1332 __________P___ -1 -13.7044 68.5773 7 5 221
1867121S13069 1867 7 SI MM NOT_NAMED 1867-05-01 06:00:00 NR -13.9000 68.4000 main 1332 1301 __________O___ -1 -13.9000 68.4000 7 5 222
1867121S13069 1867 7 SI MM NOT_NAMED 1867-05-01 09:00:00 NR -14.0903 68.2209 main 1301 1280 __________P___ -1 -14.0903 68.2209 7 5 223
1867121S13069 1867 7 SI MM NOT_NAMED 1867-05-01 12:00:00 NR -14.2725 68.0425 main 1271 1256 __________P___ -1 -14.2725 68.0425 7 5 224
1867121S13069 1867 7 SI MM NOT_NAMED 1867-05-01 15:00:00 NR -14.4434 67.8678 main 1256 1226 __________P___ -1 -14.4434 67.8678 7 5 225
1867121S13069 1867 7 SI MM NOT_NAMED 1867-05-01 18:00:00 NR -14.6000 67.7000 main 1226 1211 __________O___ -1 -14.6000 67.7000 7 4 228
1867121S13069 1867 7 SI MM NOT_NAMED 1867-05-01 21:00:00 NR -14.7149 67.5547 main 1211 1187 __________P___ -1 -14.7149 67.5547 7 4 232
1867121S13069 1867 7 SI MM NOT_NAMED 1867-05-02 00:00:00 NR -14.8198 67.4145 main 1187 1172 __________P___ -1 -14.8198 67.4145 7 4 231
1867121S13069 1867 7 SI MM NOT_NAMED 1867-05-02 03:00:00 NR -14.9399 67.2671 main 1172 1142 __________P___ -1 -14.9399 67.2671 7 4 227
1867121S13069 1867 7 SI MM NOT_NAMED 1867-05-02 06:00:00 NR -15.1000 67.1000 main 1142 1112 __________O___ -1 -15.1000 67.1000 7 5 222
1867121S13069 1867 7 SI MM NOT_NAMED 1867-05-02 09:00:00 NR -15.3278 66.9007 main 1112 1077 __________P___ -1 -15.3278 66.9007 7 6 219
1867121S13069 1867 7 SI MM NOT_NAMED 1867-05-02 12:00:00 NR -15.5975 66.6800 main 1077 1042 __________P___ -1 -15.5975 66.6800 7 7 218
1867121S13069 1867 7 SI MM NOT_NAMED 1867-05-02 15:00:00 NR -15.8934 66.4443 main 1032 998 __________P___ -1 -15.8934 66.4443 7 8 217
1867121S13069 1867 7 SI MM NOT_NAMED 1867-05-02 18:00:00 NR -16.2000 66.2000 main 998 963 __________O___ -1 -16.2000 66.2000 7 8 218
1867121S13069 1867 7 SI MM NOT_NAMED 1867-05-02 21:00:00 NR -16.5009 65.9491 main 954 920 __________P___ -1 -16.5009 65.9491 7 8 219
1867121S13069 1867 7 SI MM NOT_NAMED 1867-05-03 00:00:00 NR -16.8075 65.6926 main 920 886 __________P___ -1 -16.8075 65.6926 7 8 219
1867121S13069 1867 7 SI MM NOT_NAMED 1867-05-03 03:00:00 NR -17.1103 65.4397 main 876 843 __________P___ -1 -17.1103 65.4397 7 8 218
1867121S13069 1867 7 SI MM NOT_NAMED 1867-05-03 06:00:00 NR -17.4000 65.2000 main 843 810 __________O___ -1 -17.4000 65.2000 7 7 219
1867121S13069 1867 7 SI MM NOT_NAMED 1867-05-03 09:00:00 NR -17.6684 64.9732 main 810 782 __________P___ -1 -17.6684 64.9732 7 7 219
1867121S13069 1867 7 SI MM NOT_NAMED 1867-05-03 12:00:00 NR -17.9224 64.7623 main 782 751 __________P___ -1 -17.9224 64.7623 7 6 218
1867121S13069 1867 7 SI MM NOT_NAMED 1867-05-03 15:00:00 NR -18.1653 64.5702 main 751 724 __________P___ -1 -18.1653 64.5702 7 6 216
1867121S13069 1867 7 SI MM NOT_NAMED 1867-05-03 18:00:00 NR -18.4000 64.4000 main 724 707 __________O___ -1 -18.4000 64.4000 7 6 213
1867121S13069 1867 7 SI MM NOT_NAMED 1867-05-03 21:00:00 NR -18.6321 64.2532 main 707 681 __________P___ -1 -18.6321 64.2532 7 5 210
1867121S13069 1867 7 SI MM NOT_NAMED 1867-05-04 00:00:00 NR -18.8574 64.1272 main 678 662 __________P___ -1 -18.8574 64.1272 7 5 207
1867121S13069 1867 7 SI MM NOT_NAMED 1867-05-04 03:00:00 NR -19.0790 64.0126 main 662 647 __________P___ -1 -19.0790 64.0126 7 5 206
1867121S13069 1867 7 SI MM NOT_NAMED 1867-05-04 06:00:00 NR -19.3000 63.9000 main 647 633 __________O___ -1 -19.3000 63.9000 7 5 208
1867121S13069 1867 7 SI MM NOT_NAMED 1867-05-04 09:00:00 NR -19.5169 63.7628 main 633 609 __________P___ -1 -19.5169 63.7628 7 5 211
1867121S13069 1867 7 SI MM NOT_NAMED 1867-05-04 12:00:00 NR -19.7350 63.6275 main 609 596 __________P___ -1 -19.7350 63.6275 7 5 209
1867121S13069 1867 7 SI MM NOT_NAMED 1867-05-04 15:00:00 NR -19.9607 63.5035 main 595 584 __________P___ -1 -19.9607 63.5035 7 5 205
1867121S13069 1867 7 SI MM NOT_NAMED 1867-05-04 18:00:00 NR -20.2000 63.4000 main 584 573 __________O___ -1 -20.2000 63.4000 7 5 199
1867121S13069 1867 7 SI MM NOT_NAMED 1867-05-04 21:00:00 NR -20.4575 63.3237 main 573 573 __________P___ -1 -20.4575 63.3237 7 5 192
1867121S13069 1867 7 SI MM NOT_NAMED 1867-05-05 00:00:00 NR -20.7300 63.2700 main 574 565 __________P___ -1 -20.7300 63.2700 7 6 189
1867121S13069 1867 7 SI MM NOT_NAMED 1867-05-05 03:00:00 NR -21.0125 63.2313 main 567 567 __________P___ -1 -21.0125 63.2313 7 6 187
1867121S13069 1867 7 SI MM NOT_NAMED 1867-05-05 06:00:00 NR -21.3000 63.2000 main 572 __________O___ -1 -21.3000 63.2000 7 6 189

About IBTrACS Database

This database is a web-friendly format of International Best Track Archive for Climate Stewardship (IBTrACS), a global best track data archive curated by NOAA dating back to 1842.

Updated: 2021-10-21